Time;durP1;ratioP1;P1;durP2;ratioP2;P2;SDS_P1;SDS_P2;PMS_P1;PMS_P2;Temp;Humidity;BMP_temperature;BMP_pressure;BME280_temperature;BME280_humidity;BME280_pressure;Samples;Min_cycle;Max_cycle;Signal;HPM_P1;HPM_P2
2022/01/14 00:00:25;;;;;;;;;;;0.30;99.90;;;;;;4942390;29;20654;-78
2022/01/14 00:02:51;;;;;;;87.50;39.22;;;0.30;99.90;;;;;;4959427;29;19918;-78
2022/01/14 00:05:16;;;;;;;;;;;0.30;99.90;;;;;;4958587;29;20038;-78
2022/01/14 00:07:42;;;;;;;86.55;41.67;;;0.20;99.90;;;;;;4973315;28;19910;-79
2022/01/14 00:10:08;;;;;;;;;;;0.20;99.90;;;;;;4959645;28;20126;-78
2022/01/14 00:12:39;;;;;;;85.97;37.05;;;0.20;99.90;;;;;;4958210;29;19915;-78
2022/01/14 00:15:24;;;;;;;83.70;39.38;;;0.20;99.90;;;;;;4957333;28;20032;-79
2022/01/14 00:17:50;;;;;;;76.28;36.25;;;0.20;99.90;;;;;;4956547;29;20054;-79
2022/01/14 00:20:16;;;;;;;82.25;39.17;;;0.10;99.90;;;;;;4961228;28;20031;-79
2022/01/14 00:22:41;;;;;;;;;;;0.10;99.90;;;;;;4972372;28;20050;-80
2022/01/14 00:33:09;;;;;;;84.05;39.58;;;0.20;99.90;;;;;;4964201;29;20046;-80
2022/01/14 00:35:44;;;;;;;92.70;41.08;;;0.10;99.90;;;;;;4964534;29;20035;-80
2022/01/14 00:38:12;;;;;;;86.30;41.55;;;0.10;99.90;;;;;;4964234;29;20031;-80
2022/01/14 00:40:38;;;;;;;83.25;38.83;;;0.20;99.90;;;;;;4963332;28;20016;-80
2022/01/14 00:43:04;;;;;;;;;;;0.20;99.90;;;;;;4964554;29;20035;-80
2022/01/14 00:45:29;;;;;;;78.40;36.30;;;0.20;99.90;;;;;;4949332;29;19913;-80
2022/01/14 00:47:55;;;;;;;;;;;0.20;99.90;;;;;;4963128;29;20031;-77
2022/01/14 00:50:21;;;;;;;83.85;37.70;;;0.20;99.90;;;;;;4936454;29;20374;-78
2022/01/14 00:52:47;;;;;;;;;;;0.20;99.90;;;;;;4952305;29;20429;-78
2022/01/14 00:55:16;;;;;;;70.78;35.67;;;0.20;99.90;;;;;;4972869;28;20399;-79
2022/01/14 01:00:36;;;;;;;86.88;40.45;;;0.10;99.90;;;;;;4953819;28;20078;-78
2022/01/14 01:03:03;;;;;;;87.63;40.40;;;0.00;99.90;;;;;;4952667;28;20085;-78
2022/01/14 01:05:29;;;;;;;82.07;38.20;;;0.00;99.90;;;;;;4936734;29;20116;-78
2022/01/14 01:08:11;;;;;;;;;;;0.10;99.90;;;;;;4958226;28;20395;-78
2022/01/14 01:10:47;;;;;;;83.88;38.22;;;0.00;99.90;;;;;;4973593;28;19906;-79
2022/01/14 01:13:20;;;;;;;90.50;41.40;;;0.00;99.90;;;;;;4958730;29;20042;-79
2022/01/14 01:15:47;;;;;;;81.15;38.53;;;0.00;99.90;;;;;;4958030;29;20070;-79
2022/01/14 01:18:12;;;;;;;84.63;38.97;;;0.00;99.90;;;;;;4939282;29;20695;-78
2022/01/14 01:20:38;;;;;;;;;;;0.00;99.90;;;;;;4953806;29;20030;-78
2022/01/14 01:23:04;;;;;;;84.90;38.58;;;-0.10;99.90;;;;;;4936791;29;20430;-77
2022/01/14 01:25:38;;;;;;;81.60;38.60;;;-0.10;99.90;;;;;;4952653;29;20023;-78
2022/01/14 01:28:04;;;;;;;83.03;40.08;;;0.00;99.90;;;;;;4951044;29;20032;-77
2022/01/14 01:32:57;;;;;;;83.20;37.92;;;0.00;99.90;;;;;;4953179;28;19907;-78
2022/01/14 01:35:23;;;;;;;81.40;38.00;;;0.00;99.90;;;;;;4956896;29;20055;-79
2022/01/14 01:37:48;;;;;;;;;;;0.00;99.90;;;;;;4958024;29;20059;-78
2022/01/14 01:40:15;;;;;;;86.28;38.97;;;-0.20;99.90;;;;;;4973536;28;19913;-79
2022/01/14 01:42:44;;;;;;;82.15;38.80;;;-0.30;99.90;;;;;;4942076;29;20028;-79
2022/01/14 01:45:12;;;;;;;85.00;38.50;;;-0.30;99.90;;;;;;4958643;29;20027;-79
2022/01/14 01:47:39;;;;;;;83.22;40.40;;;-0.30;99.90;;;;;;4958278;29;20027;-79
2022/01/14 01:50:26;;;;;;;91.13;39.88;;;-0.40;99.90;;;;;;4943266;28;20070;-78
2022/01/14 01:52:53;;;;;;;88.88;38.67;;;-0.50;99.90;;;;;;4965734;29;20015;-81
2022/01/14 01:55:21;;;;;;;95.38;42.95;;;-0.60;99.90;;;;;;4950628;29;20091;-78
2022/01/14 01:57:51;;;;;;;104.15;49.42;;;-0.60;99.90;;;;;;4959280;29;20476;-79
2022/01/14 02:00:21;;;;;;;93.28;44.20;;;-0.60;99.90;;;;;;4941583;29;20031;-78
2022/01/14 02:02:48;;;;;;;91.43;43.92;;;-0.70;99.90;;;;;;4957327;29;20570;-79
2022/01/14 02:05:14;;;;;;;92.55;43.55;;;-0.70;99.90;;;;;;4958027;29;20539;-79
2022/01/14 02:07:40;;;;;;;89.35;42.72;;;-0.70;99.90;;;;;;4958868;29;20034;-78
2022/01/14 02:10:07;;;;;;;;;;;-0.80;99.90;;;;;;4959414;29;20106;-79
2022/01/14 02:12:47;;;;;;;91.13;41.78;;;-0.80;99.90;;;;;;4960076;28;19972;-79
2022/01/14 02:23:23;;;;;;;80.35;39.97;;;-1.10;99.90;;;;;;4968310;29;20046;-80
2022/01/14 02:25:49;;;;;;;83.22;40.38;;;-1.20;99.90;;;;;;4961603;29;20091;-79
2022/01/14 02:28:18;;;;;;;;;;;-1.20;99.90;;;;;;4956980;29;20914;-79
2022/01/14 02:30:46;;;;;;;90.85;41.00;;;-1.30;99.90;;;;;;4973749;28;19920;-80
2022/01/14 02:33:13;;;;;;;86.68;41.65;;;-1.40;99.90;;;;;;4942945;29;20110;-79
2022/01/14 02:35:42;;;;;;;98.82;45.58;;;-1.40;99.90;;;;;;4968459;29;20031;-81
2022/01/14 02:38:13;;;;;;;112.45;48.55;;;-1.40;99.90;;;;;;4970476;28;20042;-79
2022/01/14 02:40:40;;;;;;;113.00;51.92;;;-1.40;99.90;;;;;;4954584;29;20034;-78
2022/01/14 02:43:11;;;;;;;115.45;51.08;;;-1.40;99.90;;;;;;4954490;28;20031;-77
2022/01/14 02:45:37;;;;;;;120.50;52.40;;;-1.50;99.90;;;;;;4957645;28;20063;-79
2022/01/14 02:48:04;;;;;;;120.53;53.75;;;-1.50;99.90;;;;;;4940639;29;20161;-79
2022/01/14 02:50:42;;;;;;;123.57;54.28;;;-1.40;99.90;;;;;;4941575;29;20034;-80
2022/01/14 02:53:26;;;;;;;121.25;54.45;;;-1.40;99.90;;;;;;4957851;29;20035;-79
2022/01/14 02:56:00;;;;;;;115.88;51.65;;;-1.40;99.90;;;;;;4960937;29;20039;-78
2022/01/14 02:58:29;;;;;;;129.57;55.50;;;-1.40;99.90;;;;;;4958641;29;20031;-80
2022/01/14 03:00:57;;;;;;;114.30;51.22;;;-1.50;99.90;;;;;;4942696;28;20054;-80
2022/01/14 03:03:24;;;;;;;120.85;54.38;;;-1.30;99.90;;;;;;4956043;29;20503;-79
2022/01/14 03:05:51;;;;;;;112.60;52.13;;;-1.40;99.90;;;;;;4937906;29;20640;-78
2022/01/14 03:08:19;;;;;;;117.07;53.35;;;-1.50;99.90;;;;;;4955527;29;20031;-79
2022/01/14 03:10:47;;;;;;;125.65;55.65;;;-1.50;99.90;;;;;;4953539;29;20022;-79
2022/01/14 03:13:13;;;;;;;102.35;49.60;;;-1.60;99.90;;;;;;4938208;29;20039;-79
2022/01/14 03:15:39;;;;;;;;;;;-1.70;99.90;;;;;;4937556;29;20067;-78
2022/01/14 03:18:05;;;;;;;122.70;52.05;;;-1.70;99.90;;;;;;4970693;28;20268;-78
2022/01/14 03:20:50;;;;;;;;;;;-1.80;99.90;;;;;;4958439;29;20500;-78
2022/01/14 03:23:18;;;;;;;120.00;52.35;;;-1.80;99.90;;;;;;4982086;28;19950;-80
2022/01/14 03:25:51;;;;;;;122.78;52.80;;;-1.80;99.90;;;;;;4972198;29;20030;-79
2022/01/14 03:28:20;;;;;;;117.68;51.92;;;-1.80;99.90;;;;;;4943268;29;20050;-80
2022/01/14 03:30:46;;;;;;;111.38;53.35;;;-1.80;99.90;;;;;;4943245;29;20047;-79
2022/01/14 03:33:11;;;;;;;;;;;-1.80;99.90;;;;;;4961076;29;20031;-80
2022/01/14 03:35:37;;;;;;;123.63;51.88;;;-1.70;99.90;;;;;;4975319;28;19925;-81
2022/01/14 03:38:03;;;;;;;;;;;-1.80;99.90;;;;;;4960293;29;20027;-80
2022/01/14 03:40:28;;;;;;;130.88;56.50;;;-1.70;99.90;;;;;;4976020;28;19960;-80
2022/01/14 03:42:54;;;;;;;;;;;-1.70;99.90;;;;;;4959776;29;20032;-79
2022/01/14 03:45:20;;;;;;;118.68;54.20;;;-1.70;99.90;;;;;;4960217;29;19911;-79
2022/01/14 03:47:45;;;;;;;;;;;-1.60;99.90;;;;;;4959872;29;20031;-79
2022/01/14 03:50:11;;;;;;;125.72;52.20;;;-1.60;99.90;;;;;;4975174;28;19906;-80
2022/01/14 03:52:36;;;;;;;;;;;-1.60;99.90;;;;;;4960791;29;20023;-80
2022/01/14 03:55:03;;;;;;;119.38;54.05;;;-1.60;99.90;;;;;;4943709;28;19914;-80
2022/01/14 03:57:28;;;;;;;115.40;54.83;;;-1.60;99.90;;;;;;4959836;29;20023;-79
2022/01/14 03:59:54;;;;;;;;;;;-1.50;99.90;;;;;;4942490;29;20416;-79
2022/01/14 04:02:20;;;;;;;120.35;54.45;;;-1.50;99.90;;;;;;4955550;29;20379;-79
2022/01/14 04:04:45;;;;;;;;;;;-1.40;99.90;;;;;;4939570;29;20027;-79
2022/01/14 04:07:11;;;;;;;113.60;50.10;;;-1.50;99.90;;;;;;4941259;29;19920;-79
2022/01/14 04:09:37;;;;;;;;;;;-1.50;99.90;;;;;;4957377;29;20038;-80
2022/01/14 04:12:16;;;;;;;118.60;52.60;;;-1.50;99.90;;;;;;4975029;28;19907;-79
2022/01/14 04:17:10;;;;;;;130.02;58.40;;;-1.40;99.90;;;;;;4968892;28;20054;-81
2022/01/14 04:19:36;;;;;;;;;;;-1.40;99.90;;;;;;4966698;29;20028;-80
2022/01/14 04:22:02;;;;;;;114.22;52.90;;;-1.40;99.90;;;;;;4978524;28;19913;-79
2022/01/14 04:24:27;;;;;;;;;;;-1.40;99.90;;;;;;4964988;29;20027;-80
2022/01/14 04:26:53;;;;;;;117.68;54.30;;;-1.40;99.90;;;;;;4965671;29;19958;-80
2022/01/14 04:29:18;;;;;;;;;;;-1.40;99.90;;;;;;4956595;28;20101;-79
2022/01/14 04:31:44;;;;;;;119.10;55.55;;;-1.40;99.90;;;;;;4956323;29;20013;-78
2022/01/14 04:34:10;;;;;;;;;;;-1.30;99.90;;;;;;4940203;29;20038;-79
2022/01/14 04:36:35;;;;;;;137.20;62.33;;;-1.30;99.90;;;;;;4957663;29;20120;-79
2022/01/14 04:39:01;;;;;;;;;;;-1.20;99.90;;;;;;4958320;29;20031;-79
2022/01/14 04:41:26;;;;;;;126.70;54.50;;;-1.20;99.90;;;;;;4957585;28;19914;-79
2022/01/14 04:43:52;;;;;;;;;;;-1.20;99.90;;;;;;4940587;29;20031;-79
2022/01/14 04:48:52;;;;;;;106.93;48.35;;;-1.20;99.90;;;;;;4957735;29;20031;-79
2022/01/14 04:51:20;;;;;;;;;;;-1.10;99.90;;;;;;4940186;29;20020;-79
2022/01/14 04:53:46;;;;;;;110.88;49.97;;;-1.10;99.90;;;;;;4978122;28;19933;-80
2022/01/14 04:56:12;;;;;;;;;;;-1.10;99.90;;;;;;4977518;29;20074;-81
2022/01/14 04:58:37;;;;;;;120.97;51.42;;;-1.10;99.90;;;;;;4974761;29;19929;-79
2022/01/14 05:01:03;;;;;;;;;;;-1.10;99.90;;;;;;4953102;29;20047;-80
2022/01/14 05:03:30;;;;;;;120.18;53.55;;;-1.20;99.90;;;;;;4957877;29;19919;-80
2022/01/14 05:05:59;;;;;;;127.22;55.08;;;-1.30;99.90;;;;;;4959535;28;20027;-80
2022/01/14 05:08:31;;;;;;;123.13;53.08;;;-1.30;99.90;;;;;;4957791;28;20031;-79
2022/01/14 05:13:25;;;;;;;;;;;-1.40;99.90;;;;;;4962655;29;20119;-81
2022/01/14 05:15:53;;;;;;;119.47;54.17;;;-1.50;99.90;;;;;;4944775;29;19974;-81
2022/01/14 05:18:19;;;;;;;121.80;53.53;;;-1.50;99.90;;;;;;4960833;29;20023;-80
2022/01/14 05:20:45;;;;;;;138.45;60.90;;;-1.60;99.90;;;;;;4959822;29;20023;-80
2022/01/14 05:23:10;;;;;;;;;;;-1.50;99.90;;;;;;4961954;29;20038;-80
2022/01/14 05:25:36;;;;;;;115.18;51.47;;;-1.40;99.90;;;;;;4976830;28;19918;-80
2022/01/14 05:28:02;;;;;;;;;;;-1.50;99.90;;;;;;4961197;29;20465;-79
2022/01/14 05:30:27;;;;;;;118.70;53.17;;;-1.50;99.90;;;;;;4975328;28;20026;-81
2022/01/14 05:32:54;;;;;;;;;;;-1.60;99.90;;;;;;4961362;29;20031;-80
2022/01/14 05:35:22;;;;;;;153.68;59.00;;;-1.60;99.90;;;;;;4955433;29;19925;-80
2022/01/14 05:37:48;;;;;;;161.50;60.50;;;-1.50;99.90;;;;;;4951788;28;20063;-79
2022/01/14 05:40:15;;;;;;;164.73;64.18;;;-1.50;99.90;;;;;;4933412;29;20034;-79
2022/01/14 05:42:41;;;;;;;160.30;62.85;;;-1.50;99.90;;;;;;4932833;29;20035;-79
2022/01/14 05:45:09;;;;;;;163.10;63.38;;;-1.50;99.90;;;;;;4949813;29;20098;-78
2022/01/14 05:47:35;;;;;;;148.10;60.30;;;-1.40;99.90;;;;;;4950370;29;20381;-79
2022/01/14 05:50:02;;;;;;;172.10;62.03;;;-1.50;99.90;;;;;;4950836;29;20026;-79
2022/01/14 05:52:28;;;;;;;158.52;63.30;;;-1.60;99.90;;;;;;4950504;29;20523;-79
2022/01/14 05:54:53;;;;;;;;;;;-1.70;99.90;;;;;;4950187;28;20027;-80
2022/01/14 05:57:20;;;;;;;143.68;59.15;;;-1.80;99.90;;;;;;4933928;29;19914;-80
2022/01/14 05:59:46;;;;;;;164.32;66.97;;;-1.90;99.90;;;;;;4955456;29;20031;-80
2022/01/14 06:02:12;;;;;;;164.90;65.38;;;-2.00;99.90;;;;;;4955525;28;20023;-79
2022/01/14 06:04:38;;;;;;;;;;;-2.00;99.90;;;;;;4956070;29;20119;-80
2022/01/14 06:07:04;;;;;;;167.45;63.97;;;-2.00;99.90;;;;;;4955022;29;20001;-79
2022/01/14 06:09:29;;;;;;;;;;;-2.00;99.90;;;;;;4954251;29;20059;-79
2022/01/14 06:11:55;;;;;;;149.45;59.90;;;-2.00;99.90;;;;;;4955653;29;19910;-80
2022/01/14 06:14:21;;;;;;;;;;;-2.00;99.90;;;;;;4955536;29;20059;-80
2022/01/14 06:16:47;;;;;;;136.38;56.63;;;-1.90;99.90;;;;;;4970336;28;19918;-81
2022/01/14 06:19:12;;;;;;;;;;;-1.90;99.90;;;;;;4956603;28;20039;-80
2022/01/14 06:21:38;;;;;;;139.93;60.05;;;-1.80;99.90;;;;;;4943854;29;19910;-80
2022/01/14 06:24:03;;;;;;;;;;;-1.80;99.90;;;;;;4961288;29;20023;-80
2022/01/14 06:26:29;;;;;;;152.57;59.85;;;-1.80;99.90;;;;;;4991348;28;19906;-80
2022/01/14 06:28:55;;;;;;;;;;;-1.80;99.90;;;;;;4962379;29;20030;-80
2022/01/14 06:31:21;;;;;;;262.15;101.35;;;-1.90;99.90;;;;;;4974536;28;19906;-79
2022/01/14 06:33:46;;;;;;;;;;;-1.90;99.90;;;;;;4956861;29;20538;-80
2022/01/14 06:36:13;;;;;;;203.50;80.57;;;-1.90;99.90;;;;;;4957413;29;19918;-79
2022/01/14 06:38:39;;;;;;;190.98;73.72;;;-1.90;99.90;;;;;;4956542;29;20035;-79
2022/01/14 06:41:04;;;;;;;;;;;-1.90;99.90;;;;;;4957296;29;20035;-80
2022/01/14 06:43:30;;;;;;;182.05;72.88;;;-1.90;99.90;;;;;;4973516;28;20013;-80
2022/01/14 06:45:56;;;;;;;;;;;-1.80;99.90;;;;;;4957410;28;20499;-79
2022/01/14 06:48:21;;;;;;;138.95;60.38;;;-1.80;99.90;;;;;;4941230;29;20422;-79
2022/01/14 06:50:47;;;;;;;;;;;-1.80;99.90;;;;;;4957257;29;20031;-79
2022/01/14 06:53:13;;;;;;;134.95;59.13;;;-1.60;99.90;;;;;;4973001;28;19906;-80
2022/01/14 06:55:39;;;;;;;145.52;62.90;;;-1.70;99.90;;;;;;4955683;29;20035;-79
2022/01/14 06:58:05;;;;;;;;;;;-1.70;99.90;;;;;;4959418;29;20447;-79
2022/01/14 07:00:32;;;;;;;203.10;90.72;;;-1.60;99.90;;;;;;4973634;28;19911;-79
2022/01/14 07:02:57;;;;;;;155.73;72.03;;;-1.60;99.90;;;;;;4961039;29;20111;-81
2022/01/14 07:05:23;;;;;;;;;;;-1.50;99.90;;;;;;4948784;29;20070;-79
2022/01/14 07:07:48;;;;;;;140.60;66.78;;;-1.50;99.90;;;;;;4980499;28;19982;-79
2022/01/14 07:10:14;;;;;;;;;;;-1.50;99.90;;;;;;4947993;29;20030;-81
2022/01/14 07:12:42;;;;;;;148.45;66.05;;;-1.40;99.90;;;;;;4974183;28;20367;-80
2022/01/14 07:15:18;;;;;;;153.73;67.13;;;-1.40;99.90;;;;;;4957623;28;20031;-80
2022/01/14 07:17:44;;;;;;;152.85;65.07;;;-1.40;99.90;;;;;;4955707;29;20341;-78
2022/01/14 07:20:13;;;;;;;144.95;66.35;;;-1.30;99.90;;;;;;4952790;29;20081;-78
2022/01/14 07:22:44;;;;;;;145.95;68.32;;;-1.30;99.90;;;;;;4955407;29;20035;-78
2022/01/14 07:25:10;;;;;;;154.05;69.80;;;-1.30;99.90;;;;;;4953695;29;20023;-78
2022/01/14 07:27:36;;;;;;;139.27;66.05;;;-1.30;99.90;;;;;;4955220;29;20034;-78
2022/01/14 07:30:07;;;;;;;158.35;70.18;;;-1.20;99.90;;;;;;4954077;28;20031;-80
2022/01/14 07:32:33;;;;;;;160.45;69.88;;;-1.20;99.90;;;;;;4958546;29;20037;-79
2022/01/14 07:34:59;;;;;;;;;;;-1.10;99.90;;;;;;4959209;28;20059;-80
2022/01/14 07:37:24;;;;;;;136.55;61.38;;;-1.00;99.90;;;;;;4943870;29;19957;-79
2022/01/14 07:39:50;;;;;;;;;;;-1.10;99.90;;;;;;4964054;29;20114;-80
2022/01/14 07:42:16;;;;;;;150.93;63.92;;;-1.10;99.90;;;;;;4969735;29;19934;-80
2022/01/14 07:44:42;;;;;;;;;;;-1.20;99.90;;;;;;4967991;29;20038;-80
2022/01/14 07:47:08;;;;;;;148.93;68.97;;;-1.20;99.90;;;;;;4943236;29;19910;-80
2022/01/14 07:49:33;;;;;;;;;;;-1.30;99.90;;;;;;4943702;29;20267;-80
2022/01/14 07:51:59;;;;;;;194.20;89.15;;;-1.30;99.90;;;;;;4942796;29;19917;-79
2022/01/14 07:54:25;;;;;;;;;;;-1.30;99.90;;;;;;4961588;29;20078;-79
2022/01/14 07:56:53;;;;;;;163.55;71.28;;;-1.20;99.90;;;;;;4975625;28;19898;-81
2022/01/14 07:59:22;;;;;;;166.23;76.00;;;-1.20;99.90;;;;;;4961438;29;20027;-79
2022/01/14 08:01:50;;;;;;;151.25;69.72;;;-1.20;99.90;;;;;;4942023;29;20024;-83
2022/01/14 08:04:18;;;;;;;146.65;66.47;;;-1.10;99.90;;;;;;4958544;29;20250;-80
2022/01/14 08:06:46;;;;;;;138.15;63.83;;;-1.00;99.90;;;;;;4957810;29;20552;-79
2022/01/14 08:09:13;;;;;;;142.43;66.15;;;-1.00;99.90;;;;;;4955013;29;20031;-80
2022/01/14 08:11:39;;;;;;;146.57;67.70;;;-0.90;99.90;;;;;;4956165;29;20035;-79
2022/01/14 08:14:04;;;;;;;;;;;-0.80;99.90;;;;;;4956713;28;20032;-79
2022/01/14 08:16:30;;;;;;;143.27;65.65;;;-0.70;99.90;;;;;;4957505;29;19956;-79
2022/01/14 08:18:56;;;;;;;;;;;-0.70;99.90;;;;;;4958699;29;20027;-80
2022/01/14 08:21:21;;;;;;;140.07;63.45;;;-0.60;99.90;;;;;;4945774;29;19910;-77
2022/01/14 08:23:47;;;;;;;;;;;-0.60;99.90;;;;;;4942419;29;20037;-79
2022/01/14 08:26:13;;;;;;;146.27;66.38;;;-0.50;99.90;;;;;;4972463;28;20295;-79
2022/01/14 08:28:42;;;;;;;139.32;61.78;;;-0.50;99.90;;;;;;4955339;29;20103;-78
2022/01/14 08:31:08;;;;;;;133.88;64.00;;;-0.40;99.90;;;;;;4944044;29;20027;-81
2022/01/14 08:33:33;;;;;;;;;;;-0.30;99.90;;;;;;4958498;29;20034;-77
2022/01/14 08:36:00;;;;;;;144.15;64.60;;;-0.30;99.90;;;;;;4954154;28;19915;-78
2022/01/14 08:38:25;;;;;;;148.48;64.03;;;-0.20;99.90;;;;;;4955397;29;20046;-80
2022/01/14 08:40:51;;;;;;;;;;;-0.10;99.90;;;;;;4956598;29;20520;-78
2022/01/14 08:43:17;;;;;;;142.55;64.68;;;0.00;99.90;;;;;;4972880;28;19985;-77
2022/01/14 08:45:42;;;;;;;;;;;0.10;99.90;;;;;;4953081;29;20023;-77
2022/01/14 08:48:08;;;;;;;143.15;63.70;;;0.10;99.90;;;;;;4965718;28;19969;-77
2022/01/14 08:50:35;;;;;;;;;;;0.10;99.90;;;;;;4950014;29;20027;-78
2022/01/14 08:53:02;;;;;;;135.88;62.67;;;0.20;99.90;;;;;;4976526;28;20568;-80
2022/01/14 08:55:28;;;;;;;153.77;65.35;;;0.20;99.90;;;;;;4960475;29;20031;-80
2022/01/14 08:57:55;;;;;;;;;;;0.30;99.90;;;;;;4957468;29;20126;-81
2022/01/14 09:00:23;;;;;;;164.97;73.13;;;0.30;99.90;;;;;;4960460;29;19945;-80
2022/01/14 09:02:49;;;;;;;159.82;69.97;;;0.40;99.90;;;;;;4961078;28;20046;-80
2022/01/14 09:05:14;;;;;;;;;;;0.30;99.90;;;;;;4960561;29;20043;-79
2022/01/14 09:07:40;;;;;;;190.10;81.50;;;0.30;99.90;;;;;;4955865;29;20414;-78
2022/01/14 09:10:06;;;;;;;;;;;0.20;99.90;;;;;;4954677;29;20496;-79
2022/01/14 09:12:33;;;;;;;162.75;70.90;;;0.30;99.90;;;;;;4955339;29;19910;-78
2022/01/14 09:15:00;;;;;;;167.07;75.68;;;0.50;99.90;;;;;;4955871;29;20039;-77
2022/01/14 09:17:26;;;;;;;157.25;72.15;;;0.60;99.90;;;;;;4955824;29;20031;-78
2022/01/14 09:19:52;;;;;;;149.15;70.55;;;0.70;99.90;;;;;;4954511;29;20030;-77
2022/01/14 09:22:18;;;;;;;;;;;0.90;99.90;;;;;;4953694;28;20024;-78
2022/01/14 09:24:45;;;;;;;162.77;77.63;;;1.00;99.90;;;;;;4960693;29;19914;-77
2022/01/14 09:27:12;;;;;;;147.95;73.22;;;1.00;99.90;;;;;;4959001;29;20035;-79
2022/01/14 09:29:38;;;;;;;142.45;68.32;;;1.10;99.90;;;;;;4966988;28;20027;-78
2022/01/14 09:32:05;;;;;;;;;;;1.30;99.90;;;;;;4960603;29;20512;-79
2022/01/14 09:34:31;;;;;;;142.02;66.13;;;1.40;99.90;;;;;;4944619;29;19910;-79
2022/01/14 09:36:57;;;;;;;;;;;1.50;99.90;;;;;;4958074;29;20043;-79
2022/01/14 09:39:22;;;;;;;129.80;61.20;;;1.60;99.90;;;;;;4953610;29;20499;-77
2022/01/14 09:41:51;;;;;;;127.07;61.90;;;1.60;99.90;;;;;;4937969;29;20031;-77
2022/01/14 09:44:18;;;;;;;133.77;62.20;;;1.80;99.90;;;;;;4953328;29;20496;-77
2022/01/14 09:46:48;;;;;;;154.90;79.82;;;1.80;99.90;;;;;;4953980;29;20411;-78
2022/01/14 09:49:14;;;;;;;150.52;71.78;;;1.90;99.90;;;;;;4951673;29;20099;-79
2022/01/14 09:51:40;;;;;;;164.35;74.72;;;1.90;99.90;;;;;;4956526;28;20102;-79
2022/01/14 09:54:08;;;;;;;163.00;78.07;;;2.10;99.90;;;;;;4941798;29;20023;-80
2022/01/14 09:56:33;;;;;;;136.30;66.50;;;2.10;99.90;;;;;;4942892;29;20054;-78
2022/01/14 09:59:02;;;;;;;;;;;2.10;99.90;;;;;;4959715;29;20032;-78
2022/01/14 10:01:28;;;;;;;148.43;63.58;;;2.20;99.90;;;;;;4976879;28;19917;-80
2022/01/14 10:04:01;;;;;;;;;;;2.30;99.90;;;;;;4960776;28;20051;-79
2022/01/14 10:06:51;;;;;;;135.27;65.25;;;2.40;99.90;;;;;;4962026;29;19907;-79
2022/01/14 10:09:22;;;;;;;139.88;67.30;;;2.40;99.90;;;;;;4961220;28;20050;-80
2022/01/14 10:12:05;;;;;;;133.02;64.50;;;2.50;99.90;;;;;;4959376;28;20035;-80
2022/01/14 10:14:36;;;;;;;126.85;61.78;;;2.50;99.90;;;;;;4960616;29;20015;-79
2022/01/14 10:17:05;;;;;;;130.55;65.03;;;2.60;99.90;;;;;;4959659;29;20035;-80
2022/01/14 10:19:36;;;;;;;125.80;61.80;;;2.60;99.90;;;;;;4960851;29;20035;-80
2022/01/14 10:22:21;;;;;;;116.93;57.90;;;2.70;99.90;;;;;;4959057;29;20062;-80
2022/01/14 10:24:56;;;;;;;125.45;61.20;;;2.80;99.90;;;;;;4961483;29;20031;-80
2022/01/14 10:27:32;;;;;;;136.50;62.80;;;2.90;99.90;;;;;;4961631;29;20031;-80
2022/01/14 10:30:11;;;;;;;130.77;63.10;;;2.90;99.90;;;;;;4963489;29;20027;-79
2022/01/14 10:32:38;;;;;;;141.20;69.43;;;2.90;99.90;;;;;;4969519;29;20046;-78
2022/01/14 10:35:09;;;;;;;142.93;69.20;;;2.70;99.90;;;;;;4965798;29;20174;-79
2022/01/14 10:37:35;;;;;;;137.45;64.95;;;2.60;99.90;;;;;;4957806;29;20162;-78
2022/01/14 10:40:04;;;;;;;134.98;65.55;;;2.60;99.90;;;;;;4939714;29;20054;-80
2022/01/14 10:42:34;;;;;;;148.45;67.28;;;2.50;99.90;;;;;;4955000;28;20182;-79
2022/01/14 10:45:23;;;;;;;135.43;67.40;;;2.50;99.90;;;;;;4956777;29;20026;-78
2022/01/14 10:48:03;;;;;;;156.18;71.78;;;2.40;99.90;;;;;;4955697;28;20375;-79
2022/01/14 10:50:42;;;;;;;159.68;78.63;;;2.40;99.90;;;;;;4958287;29;20023;-78
2022/01/14 10:53:16;;;;;;;179.45;92.00;;;2.40;99.90;;;;;;4957335;29;20416;-78
2022/01/14 10:55:45;;;;;;;169.93;86.43;;;2.50;99.90;;;;;;4941483;29;20118;-77
2022/01/14 10:58:17;;;;;;;151.32;75.13;;;2.60;99.90;;;;;;4942202;29;20141;-79
2022/01/14 11:00:47;;;;;;;150.05;73.07;;;2.60;99.90;;;;;;4959600;29;20088;-78
2022/01/14 11:03:13;;;;;;;150.32;73.50;;;2.60;99.90;;;;;;4970518;28;20054;-80
2022/01/14 11:05:39;;;;;;;145.68;68.93;;;2.50;99.90;;;;;;4958028;28;20027;-79
2022/01/14 11:08:05;;;;;;;;;;;2.40;99.90;;;;;;4957411;29;20045;-79
2022/01/14 11:10:34;;;;;;;141.25;66.30;;;2.50;99.90;;;;;;4973177;28;19906;-78
2022/01/14 11:13:01;;;;;;;145.05;65.53;;;2.50;99.90;;;;;;4958611;29;20062;-78
2022/01/14 11:15:29;;;;;;;143.63;67.18;;;2.40;99.90;;;;;;4957623;28;20035;-80
2022/01/14 11:17:56;;;;;;;141.38;69.20;;;2.30;99.90;;;;;;4957882;28;20061;-78
2022/01/14 11:20:31;;;;;;;144.80;65.50;;;2.30;99.90;;;;;;4959353;29;20056;-79
2022/01/14 11:23:14;;;;;;;140.93;65.50;;;2.20;99.90;;;;;;4960533;29;20023;-81
2022/01/14 11:25:50;;;;;;;146.20;68.00;;;2.30;99.90;;;;;;4961623;29;20023;-80
2022/01/14 11:28:23;;;;;;;143.25;68.15;;;2.20;99.90;;;;;;4961587;29;20035;-79
2022/01/14 11:30:49;;;;;;;139.65;67.03;;;2.20;99.90;;;;;;4960696;29;20054;-80
2022/01/14 11:33:16;;;;;;;;;;;2.20;99.90;;;;;;4945896;29;20031;-80
2022/01/14 11:35:53;;;;;;;130.82;62.17;;;2.30;99.90;;;;;;4946518;28;19914;-80
2022/01/14 11:38:33;;;;;;;138.98;61.92;;;2.30;99.90;;;;;;4962218;29;20031;-79
2022/01/14 11:40:58;;;;;;;140.13;64.13;;;2.30;99.90;;;;;;4962500;29;20030;-81
2022/01/14 11:43:40;;;;;;;;;;;2.30;99.90;;;;;;4946689;29;20039;-79
2022/01/14 11:46:08;;;;;;;135.07;60.50;;;2.30;99.90;;;;;;4946821;29;19930;-80
2022/01/14 11:48:39;;;;;;;128.48;59.15;;;2.40;99.90;;;;;;4945926;29;20031;-81
2022/01/14 11:51:11;;;;;;;131.38;62.58;;;2.40;99.90;;;;;;4963978;29;20034;-81
2022/01/14 11:53:49;;;;;;;119.78;58.13;;;2.40;99.90;;;;;;4963394;29;20039;-79
2022/01/14 11:56:32;;;;;;;120.88;57.75;;;2.50;99.90;;;;;;4964062;29;20039;-79
2022/01/14 11:59:17;;;;;;;117.28;57.20;;;2.50;99.90;;;;;;4964502;28;20027;-80
2022/01/14 12:01:46;;;;;;;116.57;55.45;;;2.60;99.90;;;;;;4964184;28;20038;-80
2022/01/14 12:04:12;;;;;;;112.43;57.08;;;2.60;99.90;;;;;;4961249;29;20075;-80
2022/01/14 12:06:50;;;;;;;;;;;2.70;99.90;;;;;;4964540;29;20460;-80
2022/01/14 12:09:17;;;;;;;117.40;53.78;;;2.80;99.90;;;;;;4978594;28;19949;-79
2022/01/14 12:11:43;;;;;;;109.18;54.03;;;2.80;99.90;;;;;;4947603;29;20558;-80
2022/01/14 12:14:11;;;;;;;111.63;54.50;;;2.80;99.90;;;;;;4962126;28;20074;-79
2022/01/14 12:16:46;;;;;;;101.28;52.42;;;2.90;99.90;;;;;;4964608;28;20077;-80
2022/01/14 12:19:15;;;;;;;107.57;53.83;;;2.80;99.90;;;;;;4963456;29;20027;-79
2022/01/14 12:21:43;;;;;;;128.27;63.83;;;2.80;99.90;;;;;;4961554;28;20055;-80
2022/01/14 12:24:18;;;;;;;212.82;99.82;;;2.90;99.90;;;;;;4947254;29;20019;-79
2022/01/14 12:27:03;;;;;;;135.32;69.60;;;2.90;99.90;;;;;;4963501;29;20488;-80
2022/01/14 12:29:39;;;;;;;104.00;53.50;;;2.90;99.90;;;;;;4946664;29;20065;-80
2022/01/14 12:32:13;;;;;;;112.35;56.53;;;3.00;99.90;;;;;;4947432;29;20062;-80
2022/01/14 12:34:48;;;;;;;123.90;62.40;;;3.00;99.90;;;;;;4972341;29;20023;-80
2022/01/14 12:37:26;;;;;;;116.35;58.80;;;3.10;99.90;;;;;;4948386;29;20139;-79
2022/01/14 12:39:53;;;;;;;120.80;59.35;;;3.10;99.90;;;;;;4962049;29;20488;-80
2022/01/14 12:42:20;;;;;;;114.47;59.97;;;3.10;99.90;;;;;;4961386;28;20087;-80
2022/01/14 12:44:47;;;;;;;101.07;52.33;;;3.20;99.90;;;;;;4961388;29;20031;-80
2022/01/14 12:47:20;;;;;;;112.90;56.63;;;3.20;99.90;;;;;;4961831;29;20404;-80
2022/01/14 12:49:47;;;;;;;116.68;59.88;;;3.20;99.90;;;;;;4962876;29;20087;-79
2022/01/14 12:52:29;;;;;;;106.95;56.55;;;3.20;99.90;;;;;;4945423;29;20032;-80
2022/01/14 12:54:55;;;;;;;112.60;59.80;;;3.20;99.90;;;;;;4963561;29;20031;-79
2022/01/14 12:57:24;;;;;;;115.53;56.92;;;3.20;99.90;;;;;;4962418;28;20031;-79
2022/01/14 12:59:51;;;;;;;125.22;62.22;;;3.30;99.90;;;;;;4965208;28;20023;-78
2022/01/14 13:02:25;;;;;;;138.48;67.20;;;3.20;99.90;;;;;;4963690;28;20031;-80
2022/01/14 13:05:02;;;;;;;135.52;64.75;;;3.20;99.90;;;;;;4961663;29;20458;-80
2022/01/14 13:07:29;;;;;;;104.53;53.53;;;3.20;99.90;;;;;;4946424;29;20031;-80
2022/01/14 13:09:56;;;;;;;106.28;52.47;;;3.20;99.90;;;;;;4962866;29;20103;-80
2022/01/14 13:12:25;;;;;;;109.03;54.63;;;3.20;99.90;;;;;;4962754;29;20020;-80
2022/01/14 13:14:59;;;;;;;114.95;57.90;;;3.20;99.90;;;;;;4964684;29;20027;-79
2022/01/14 13:17:28;;;;;;;105.70;53.78;;;3.10;99.90;;;;;;4974451;29;20055;-80
2022/01/14 13:20:11;;;;;;;106.45;53.88;;;3.20;99.90;;;;;;4973012;29;20031;-79
2022/01/14 13:22:39;;;;;;;107.82;54.75;;;3.20;99.90;;;;;;4949172;29;20030;-80